Latest Weather Observations for Laverton

IDV60801

Issued at 7:31 pm EST Tuesday 4 August 2015 (issued every 30 minutes, with the page automatically refreshed every 10 minutes)

About weather observations | Map of weather stations | Latest weather observations for VIC | Other Formats
Station Details ID: 087031 Name: LAVERTON RAAF Lat: -37.86 Lon: 144.76 Height: 20.1 m
Data from the previous 72 hours. | See also: Recent months at Laverton
Date/Time
EST
Temp
°C
App
Temp
°C
Dew
Point
Rel
Hum
%
Delta-T
°C
Wind Press
QNH
hPa
Press
MSL
hPa
Rain
since 9 am
mm
Dir
 
Spd
km/h
Gust
km/h
Spd
kts
Gust
kts
04/07:30pm 8.8 3.7 3.0 67 2.5 N 19 32 10 17 1016.5 1016.5 0.0
04/07:00pm 9.4 4.1 2.9 64 2.8 N 20 32 11 17 1016.8 1016.8 0.0
04/06:30pm 9.6 4.5 2.9 63 2.9 NNW 19 28 10 15 1016.9 1016.9 0.0
04/06:00pm 9.9 4.3 3.2 63 2.9 NNW 22 32 12 17 1017.2 1017.2 0.0
04/05:30pm 9.9 4.7 3.6 65 2.8 NW 20 24 11 13 1017.6 1017.6 0.0
04/05:00pm 10.3 4.7 3.6 63 2.9 NW 22 35 12 19 1017.8 1017.8 0.0
04/04:30pm 11.2 4.8 3.3 58 3.5 NW 26 35 14 19 1017.8 1017.8 0.0
04/04:00pm 10.4 4.3 3.0 60 3.2 NW 24 32 13 17 1018.3 1018.3 0.0
04/03:30pm 10.2 4.5 3.0 61 3.1 NW 22 30 12 16 1018.7 1018.7 0.0
04/03:00pm 10.4 4.4 3.2 61 3.1 NW 24 32 13 17 1019.1 1019.1 0.0
04/02:30pm 10.0 3.6 3.1 62 3.0 NW 26 32 14 17 1019.5 1019.5 0.0
04/02:00pm 10.7 4.6 3.0 59 3.3 WNW 24 33 13 18 1019.8 1019.8 0.0
04/01:30pm 10.5 3.6 2.8 59 3.3 NW 28 37 15 20 1020.0 1020.0 0.0
04/01:00pm 11.2 4.4 3.0 57 3.6 NW 28 35 15 19 1020.4 1020.4 0.0
04/12:30pm 11.5 4.7 3.0 56 3.7 WNW 28 39 15 21 1021.1 1021.1 0.0
04/12:00pm 10.3 3.4 2.4 58 3.4 WNW 28 39 15 21 1021.8 1021.8 0.0
04/11:30am 10.2 3.6 2.3 58 3.4 WNW 26 35 14 19 1022.3 1022.3 0.0
04/11:00am 9.8 3.2 2.2 59 3.2 W 26 39 14 21 1022.6 1022.6 0.0
04/10:30am 9.2 3.1 2.5 63 2.8 WNW 24 33 13 18 1023.0 1023.0 0.0
04/10:00am 8.1 2.0 2.6 68 2.3 WNW 24 32 13 17 1023.1 1023.1 0.0
04/09:30am 7.5 2.2 3.0 73 1.9 NW 20 26 11 14 1023.3 1023.3 0.0
04/09:00am 6.8 2.1 3.2 78 1.5 NW 17 22 9 12 1023.4 1023.4 0.6
04/08:30am 5.8 1.5 3.0 82 1.2 NW 15 22 8 12 1023.5 1023.5 0.6
04/08:00am 4.3 -0.6 1.8 84 1.0 NW 17 20 9 11 1023.5 1023.5 0.6
04/07:30am 4.6 -0.9 2.1 84 1.0 WNW 20 24 11 13 1023.5 1023.5 0.6
04/07:00am 4.8 0.0 2.7 86 0.8 WNW 17 22 9 12 1023.6 1023.6 0.6
04/06:30am 4.0 -0.4 2.5 90 0.6 WNW 15 19 8 10 1023.5 1023.5 0.6
04/06:00am 1.9 -2.8 0.7 92 0.4 NW 15 17 8 9 1023.2 1023.2 0.6
04/05:30am 1.4 -3.0 0.2 92 0.4 WNW 13 17 7 9 1023.1 1023.1 0.6
04/05:00am 0.7 -3.8 -0.6 91 0.5 NW 13 15 7 8 1022.9 1022.9 0.6
04/04:30am 1.4 -3.4 0.1 91 0.5 NW 15 17 8 9 1022.9 1022.9 0.6
04/04:00am 1.6 -3.2 0.0 89 0.6 NW 15 17 8 9 1023.0 1023.0 0.6
04/03:30am 2.0 -2.4 0.4 89 0.6 NW 13 15 7 8 1023.1 1023.1 0.6
04/03:00am 2.0 -2.8 0.2 88 0.7 NW 15 17 8 9 1023.2 1023.2 0.6
04/02:30am 2.4 -2.0 0.3 86 0.8 NW 13 15 7 8 1023.3 1023.3 0.6
04/02:00am 3.7 -1.3 1.1 83 1.0 WNW 17 22 9 12 1023.5 1023.5 0.6
04/01:30am 4.7 -0.3 1.6 80 1.2 WNW 17 20 9 11 1023.7 1023.7 0.6
04/01:00am 4.6 -0.4 1.6 81 1.2 WNW 17 20 9 11 1023.7 1023.7 0.6
04/12:30am 4.6 -0.4 1.6 81 1.2 WNW 17 20 9 11 1023.7 1023.7 0.6
04/12:00am 4.8 -0.5 1.6 80 1.3 WNW 19 24 10 13 1023.7 1023.7 0.6
 
Date/Time
EST
Temp
°C
App
Temp
°C
Dew
Point
Rel
Hum
%
Delta-T
°C
Wind Press
QNH
hPa
Press
MSL
hPa
Rain
since 9 am
mm
Dir
 
Spd
km/h
Gust
km/h
Spd
kts
Gust
kts
03/11:30pm 4.6 -0.7 2.0 83 1.0 WNW 19 24 10 13 1023.7 1023.7 0.6
03/11:00pm 4.2 -0.3 1.9 85 0.9 NW 15 19 8 10 1023.7 1023.7 0.6
03/10:30pm 4.1 -0.1 1.8 85 0.9 WNW 13 19 7 10 1023.9 1023.9 0.6
03/10:00pm 3.0 -2.1 0.9 86 0.8 WNW 17 19 9 10 1024.1 1024.1 0.6
03/09:30pm 2.3 -1.7 0.4 87 0.7 WNW 11 13 6 7 1024.2 1024.2 0.6
03/09:00pm 2.5 -1.9 0.4 86 0.8 NW 13 15 7 8 1024.0 1024.0 0.6
03/08:30pm 2.7 -1.4 -0.1 82 1.0 WNW 11 13 6 7 1023.8 1023.8 0.6
03/08:00pm 4.1 -0.2 0.8 79 1.3 WNW 13 15 7 8 1023.7 1023.7 0.4
03/07:30pm 5.6 1.6 0.6 70 1.9 W 11 15 6 8 1023.4 1023.4 0.4
03/07:00pm 6.0 2.2 1.7 74 1.7 WSW 11 15 6 8 1023.2 1023.2 0.4
03/06:30pm 6.6 2.4 1.9 72 1.9 WSW 13 19 7 10 1022.9 1022.9 0.4
03/06:00pm 6.9 3.1 2.0 71 2.0 W 11 15 6 8 1022.5 1022.5 0.4
03/05:30pm 7.0 3.3 2.5 73 1.9 WSW 11 13 6 7 1022.2 1022.2 0.4
03/05:00pm 6.6 2.2 2.9 77 1.5 SSW 15 20 8 11 1022.1 1022.1 0.4
03/04:38pm 7.5 2.0 1.8 67 2.3 SSW 20 43 11 23 1022.1 1022.1 0.4
03/04:30pm 8.1 3.3 2.6 68 2.3 SSW 17 20 9 11 1021.6 1021.6 0.4
03/04:00pm 7.8 2.6 2.7 70 2.1 S 19 24 10 13 1021.4 1021.4 0.4
03/03:30pm 8.9 1.4 1.3 59 3.1 SW 30 41 16 22 1021.0 1021.0 0.4
03/03:00pm 9.4 4.0 2.3 61 3.0 SW 20 28 11 15 1020.6 1020.6 0.4
03/02:30pm 7.7 2.4 3.2 73 1.9 SSW 20 33 11 18 1020.5 1020.5 0.4
03/02:00pm 9.2 3.7 0.6 55 3.5 SW 19 24 10 13 1020.1 1020.1 0.0
03/01:30pm 9.3 4.0 1.7 59 3.2 SW 19 26 10 14 1020.0 1020.0 0.0
03/01:00pm 7.7 0.4 2.4 69 2.2 SSW 30 41 16 22 1020.0 1020.0 0.0
03/12:30pm 9.8 2.5 -0.1 50 4.0 WSW 28 41 15 22 1019.5 1019.5 0.0
03/12:00pm 9.4 2.5 0.3 53 3.6 SW 26 37 14 20 1019.5 1019.5 0.0
03/11:30am 9.0 2.2 0.5 55 3.4 SW 26 41 14 22 1019.6 1019.6 0.0
03/11:07am 8.7 1.1 0.7 57 3.2 WSW 30 48 16 26 1019.4 1019.4 0.0
03/11:00am 9.1 1.6 1.3 58 3.2 WSW 30 39 16 21 1019.4 1019.4 0.0
03/10:30am 8.8 1.4 1.7 61 2.9 WSW 30 43 16 23 1019.0 1019.0 0.0
03/10:00am 8.4 1.6 3.1 69 2.2 WSW 28 41 15 22 1018.5 1018.5 0.0
03/09:30am 7.9 2.1 4.3 78 1.6 W 24 32 13 17 1018.0 1018.0 0.0
03/09:00am 6.8 1.4 4.3 84 1.1 W 22 30 12 16 1017.5 1017.5 4.4
03/08:37am 6.7 1.2 4.2 84 1.1 W 22 33 12 18 1016.8 1016.8 4.4
03/08:30am 6.6 1.1 4.1 84 1.1 W 22 32 12 17 1016.8 1016.8 4.4
03/08:15am 6.7 0.8 3.7 81 1.3 WSW 24 32 13 17 1017.1 1017.1 4.2
03/08:00am 7.3 1.8 3.9 79 1.5 W 22 32 12 17 1016.3 1016.3 3.8
03/07:30am 7.4 1.9 4.0 79 1.5 W 22 32 12 17 1015.6 1015.6 3.8
03/07:00am 7.3 1.1 4.1 80 1.4 W 26 39 14 21 1014.6 1014.6 3.8
03/06:35am 7.2 0.7 4.7 84 1.1 W 28 43 15 23 1014.2 1014.2 3.8
03/06:30am 7.2 0.3 4.7 84 1.1 W 30 43 16 23 1014.2 1014.2 3.8
03/06:17am 7.3 0.3 4.3 81 1.3 WSW 30 44 16 24 1014.1 1014.1 3.8
03/06:00am 8.0 0.1 4.4 78 1.6 W 35 48 19 26 1013.6 1013.6 3.6
03/05:30am 9.0 1.6 4.2 72 2.1 W 32 54 17 29 1013.0 1013.0 3.6
03/05:00am 8.7 1.8 4.7 76 1.8 W 30 39 16 21 1012.5 1012.5 3.6
03/04:52am 8.9 2.4 4.9 76 1.8 W 28 39 15 21 1012.5 1012.5 3.6
03/04:39am 8.8 1.9 4.8 76 1.8 W 30 48 16 26 1012.3 1012.3 3.6
03/04:35am 8.9 2.0 4.5 74 1.9 W 30 48 16 26 1012.4 1012.4 3.6
03/04:30am 9.4 2.8 4.4 71 2.2 W 28 37 15 20 1012.4 1012.4 3.6
03/04:00am 9.3 2.4 4.7 73 2.1 W 30 50 16 27 1012.1 1012.1 3.6
03/03:30am 9.9 2.0 4.3 68 2.5 W 35 54 19 29 1011.9 1011.9 3.6
03/03:00am 9.8 2.2 4.0 67 2.6 WNW 33 54 18 29 1012.0 1012.0 3.6
03/02:49am 10.0 2.6 4.2 67 2.6 WNW 32 56 17 30 1011.8 1011.8 3.6
03/02:30am 9.8 2.9 4.4 69 2.4 WNW 30 39 16 21 1011.8 1011.8 3.6
03/02:00am 9.6 3.4 4.4 70 2.3 WNW 26 37 14 20 1012.0 1012.0 3.6
03/01:30am 9.7 2.7 4.1 68 2.5 WNW 30 44 16 24 1011.9 1011.9 3.6
03/01:00am 9.6 3.0 4.4 70 2.3 NW 28 39 15 21 1012.1 1012.1 3.6
03/12:30am 9.5 2.0 4.3 70 2.3 NW 33 44 18 24 1012.1 1012.1 3.6
03/12:00am 9.2 3.0 4.2 71 2.2 NW 26 35 14 19 1012.4 1012.4 3.6
 
Date/Time
EST
Temp
°C
App
Temp
°C
Dew
Point
Rel
Hum
%
Delta-T
°C
Wind Press
QNH
hPa
Press
MSL
hPa
Rain
since 9 am
mm
Dir
 
Spd
km/h
Gust
km/h
Spd
kts
Gust
kts
02/11:30pm 9.1 3.7 4.5 73 2.0 NW 22 33 12 18 1012.4 1012.4 3.6
02/11:00pm 9.2 3.4 4.4 72 2.1 NW 24 35 13 19 1012.6 1012.6 3.6
02/10:30pm 9.0 3.2 4.4 73 2.0 NW 24 32 13 17 1012.6 1012.6 3.6
02/10:00pm 9.1 3.4 4.9 75 1.9 NW 24 32 13 17 1012.8 1012.8 3.6
02/09:30pm 9.1 2.8 5.7 79 1.5 WNW 28 37 15 20 1012.7 1012.7 3.6
02/09:00pm 9.7 4.4 6.6 81 1.4 WNW 24 35 13 19 1012.4 1012.4 3.6
02/08:30pm 9.2 5.6 6.8 85 1.1 WNW 15 24 8 13 1012.3 1012.3 3.6
02/08:00pm 9.1 4.6 6.2 82 1.3 WNW 19 30 10 16 1012.3 1012.3 3.6
02/07:30pm 9.4 3.7 6.7 83 1.3 WNW 26 35 14 19 1012.1 1012.1 3.6
02/07:00pm 9.1 3.2 7.4 89 0.8 WNW 28 37 15 20 1011.8 1011.8 3.6
02/06:52pm 9.2 2.9 7.5 89 0.8 WNW 30 44 16 24 1011.9 1011.9 3.4
02/06:30pm 9.0 2.3 7.3 89 0.8 W 32 44 17 24 1011.5 1011.6 2.8
02/06:04pm 9.2 3.2 7.2 87 0.9 W 28 48 15 26 1011.2 1011.3 1.4
02/06:01pm 9.5 4.0 7.4 87 1.0 WSW 26 48 14 26 1011.3 1011.4 1.2
02/06:00pm 9.6 4.5 7.5 87 1.0 WSW 24 48 13 26 1011.3 1011.4 1.2
02/05:59pm 9.8 4.7 7.7 87 1.0 WSW 24 41 13 22 1011.3 1011.4 1.0
02/05:30pm 10.2 4.3 7.6 84 1.2 W 28 43 15 23 1010.7 1010.8 0.4
02/05:22pm 10.4 4.5 7.5 82 1.4 W 28 43 15 23 1010.6 1010.7 0.2
02/05:16pm 10.6 5.4 7.3 80 1.6 WSW 24 35 13 19 1010.4 1010.5 0.0
02/05:03pm 10.7 4.2 6.6 76 1.9 WSW 30 52 16 28 1010.2 1010.3 0.0
02/05:00pm 10.9 4.0 6.3 73 2.2 WSW 32 52 17 28 1010.3 1010.4 0.0
02/04:53pm 13.0 6.5 4.7 57 3.8 W 28 50 15 27 1010.3 1010.4 0.0
02/04:30pm 13.3 7.1 4.2 54 4.1 NW 26 35 14 19 1009.3 1009.4 0.0
02/04:00pm 13.6 6.1 3.7 51 4.5 NW 32 44 17 24 1009.5 1009.6 0.0
02/03:30pm 14.0 6.0 4.0 51 4.6 WNW 35 50 19 27 1009.5 1009.6 0.0
02/03:10pm 13.5 5.1 3.6 51 4.5 WNW 37 56 20 30 1009.6 1009.7 0.0
02/03:00pm 13.4 5.7 3.5 51 4.5 WNW 33 46 18 25 1009.6 1009.7 0.0
02/02:46pm 13.4 4.9 3.2 50 4.6 NW 37 56 20 30 1009.5 1009.6 0.0
02/02:30pm 13.7 6.6 3.5 50 4.6 WNW 30 44 16 24 1009.7 1009.8 0.0
02/02:00pm 13.0 4.5 3.1 51 4.4 WNW 37 50 20 27 1009.9 1010.0 0.0
02/01:31pm 13.9 5.0 3.1 48 4.8 WNW 39 57 21 31 1009.6 1009.7 0.0
02/01:30pm 14.4 6.0 3.8 49 4.8 WNW 37 54 20 29 1009.8 1009.9 0.0
02/01:00pm 13.9 5.4 3.4 49 4.7 WNW 37 54 20 29 1010.2 1010.3 0.0
02/12:48pm 13.7 4.9 3.5 50 4.6 WNW 39 57 21 31 1010.4 1010.5 0.0
02/12:30pm 13.4 4.6 3.8 52 4.3 NW 39 52 21 28 1010.9 1011.0 0.0
02/12:06pm 12.6 4.5 3.0 52 4.2 WNW 35 54 19 29 1011.2 1011.3 0.0
02/12:00pm 12.5 4.4 3.2 53 4.1 NW 35 48 19 26 1011.4 1011.5 0.0
02/11:30am 11.8 3.6 2.8 54 3.9 WNW 35 50 19 27 1012.0 1012.0 0.0
02/11:12am 11.9 3.4 2.9 54 3.9 NW 37 56 20 30 1012.2 1012.2 0.0
02/11:00am 11.9 3.4 3.2 55 3.8 WNW 37 50 20 27 1012.5 1012.5 0.0
02/10:30am 11.2 2.3 3.0 57 3.6 WNW 39 54 21 29 1012.9 1012.9 0.0
02/10:08am 10.8 3.0 3.1 59 3.4 NW 33 52 18 28 1012.9 1012.9 0.0
02/10:00am 10.7 3.6 3.3 60 3.2 NW 30 43 16 23 1013.0 1013.0 0.0
02/09:30am 9.6 3.9 3.1 64 2.8 NNW 22 32 12 17 1012.9 1012.9 0.0
02/09:00am 8.3 3.6 3.2 70 2.2 NNW 17 22 9 12 1013.0 1013.0 0.0
02/08:30am 6.5 2.7 1.6 71 2.0 N 11 15 6 8 1013.2 1013.2 0.0
02/08:00am 7.0 3.2 1.7 69 2.2 N 11 17 6 9 1013.4 1013.4 0.0
02/07:30am 6.9 2.3 1.6 69 2.1 N 15 19 8 10 1013.3 1013.3 0.0
02/07:00am 6.4 2.6 1.9 73 1.8 N 11 15 6 8 1013.5 1013.5 0.0
02/06:30am 6.8 2.6 1.9 71 2.0 NNW 13 19 7 10 1013.3 1013.3 0.0
02/06:00am 6.9 2.0 2.2 72 1.9 NNW 17 22 9 12 1013.3 1013.3 0.0
02/05:30am 6.9 2.0 2.2 72 1.9 NNW 17 20 9 11 1013.4 1013.4 0.0
02/05:00am 6.7 1.9 2.4 74 1.8 NW 17 20 9 11 1013.5 1013.5 0.0
02/04:30am 6.5 2.5 2.6 76 1.6 NW 13 17 7 9 1013.3 1013.3 0.0
02/04:00am 6.1 2.1 2.7 79 1.4 NW 13 17 7 9 1013.6 1013.6 0.0
02/03:30am 6.1 2.1 2.7 79 1.4 NW 13 15 7 8 1013.9 1013.9 0.0
02/03:00am 6.4 3.1 2.5 76 1.6 NNW 9 15 5 8 1014.6 1014.6 0.0
02/02:30am 6.4 2.8 2.7 77 1.5 NNW 11 13 6 7 1014.9 1014.9 0.0
02/02:00am 6.4 3.5 2.5 76 1.6 NNW 7 9 4 5 1014.8 1014.8 0.0
02/01:30am 6.4 3.1 2.7 77 1.5 NNW 9 13 5 7 1015.2 1015.2 0.0
02/01:00am 6.3 3.1 2.8 78 1.4 NNW 9 9 5 5 1015.2 1015.2 0.0
02/12:30am 6.1 2.8 2.7 79 1.4 NNW 9 11 5 6 1015.8 1015.8 0.0
02/12:00am 6.2 2.6 3.0 80 1.3 NW 11 13 6 7 1016.3 1016.3 0.0
 
Date/Time
EST
Temp
°C
App
Temp
°C
Dew
Point
Rel
Hum
%
Delta-T
°C
Wind Press
QNH
hPa
Press
MSL
hPa
Rain
since 9 am
mm
Dir
 
Spd
km/h
Gust
km/h
Spd
kts
Gust
kts
01/11:30pm 6.1 2.8 2.7 79 1.4 NW 9 13 5 7 1016.0 1016.0 0.0
01/11:00pm 6.4 2.4 2.9 78 1.5 NW 13 15 7 8 1015.9 1015.9 0.0
01/10:30pm 6.3 3.1 3.1 80 1.3 NW 9 11 5 6 1016.0 1016.0 0.0
01/10:00pm 6.2 2.6 3.0 80 1.3 NW 11 13 6 7 1016.3 1016.3 0.0
01/09:30pm 6.4 2.8 3.0 79 1.4 NW 11 13 6 7 1016.5 1016.5 0.0
01/09:00pm 6.3 3.0 2.6 77 1.5 WNW 9 11 5 6 1016.5 1016.5 0.0
01/08:30pm 6.6 3.3 2.3 74 1.8 WNW 9 9 5 5 1016.2 1016.2 0.0
01/08:00pm 7.0 4.1 2.5 73 1.9 WNW 7 9 4 5 1016.0 1016.0 0.0

Other Formats:

Comma delimited format used in spreadsheet applications
http://www.bom.gov.au/fwo/IDV60801/IDV60801.94865.axf

JavaScript Object Notation format (JSON) in row-major order
http://www.bom.gov.au/fwo/IDV60801/IDV60801.94865.json